createdAt,value
2019-02-07T00:00:29.942Z,25.55
2019-02-07T00:01:25.737Z,23.98
2019-02-07T00:02:03.764Z,24.67
2019-02-07T00:02:42.099Z,25.82
2019-02-07T00:03:20.025Z,25.82
2019-02-07T00:03:57.303Z,25.70
2019-02-07T00:04:35.092Z,25.55
2019-02-07T00:05:12.912Z,25.95
2019-02-07T00:05:50.451Z,25.10
2019-02-07T00:06:28.436Z,25.70
2019-02-07T00:07:06.312Z,26.30
2019-02-07T00:07:43.983Z,27.62
2019-02-07T00:08:21.922Z,28.25
2019-02-07T00:08:58.928Z,26.55
2019-02-07T00:09:37.105Z,26.50
2019-02-07T00:10:15.885Z,26.27
2019-02-07T00:10:53.698Z,26.85
2019-02-07T00:11:31.694Z,26.75
2019-02-07T00:12:09.998Z,26.90
2019-02-07T00:12:48.163Z,26.65
2019-02-07T00:13:26.257Z,24.18
2019-02-07T00:14:04.220Z,26.57
2019-02-07T00:14:42.019Z,27.15
2019-02-07T00:15:20.151Z,27.00
2019-02-07T00:15:58.449Z,26.60
2019-02-07T00:16:36.492Z,26.93
2019-02-07T00:17:14.657Z,26.52
2019-02-07T00:17:51.909Z,25.20
2019-02-07T00:18:30.057Z,27.17
2019-02-07T00:19:08.279Z,26.68
2019-02-07T00:19:46.443Z,29.72
2019-02-07T00:20:24.361Z,27.00
2019-02-07T00:21:02.067Z,27.30
2019-02-07T00:21:39.593Z,28.83
2019-02-07T00:22:17.435Z,27.90
2019-02-07T00:22:55.422Z,26.75
2019-02-07T00:23:32.845Z,28.85
2019-02-07T00:24:11.046Z,27.45
2019-02-07T00:24:48.268Z,27.50
2019-02-07T00:25:26.323Z,28.52
2019-02-07T00:26:04.333Z,27.17
2019-02-07T00:26:42.953Z,27.20
2019-02-07T00:27:20.446Z,28.12
2019-02-07T00:27:58.248Z,26.77
2019-02-07T00:28:36.085Z,27.22
2019-02-07T00:29:13.857Z,28.15
2019-02-07T00:29:51.368Z,26.97
2019-02-07T00:30:29.212Z,27.48
2019-02-07T00:31:07.113Z,26.65
2019-02-07T00:31:44.881Z,26.62
2019-02-07T00:32:22.612Z,27.02
2019-02-07T00:33:00.694Z,27.00
2019-02-07T00:33:38.134Z,29.27
2019-02-07T00:34:16.266Z,29.45
2019-02-07T00:34:53.813Z,30.40
2019-02-07T00:35:31.862Z,27.00
2019-02-07T00:36:09.686Z,28.05
2019-02-07T00:36:47.813Z,27.10
2019-02-07T00:37:25.586Z,27.07
2019-02-07T00:38:03.283Z,28.38
2019-02-07T00:38:41.256Z,29.60
2019-02-07T00:39:19.386Z,29.48
2019-02-07T00:39:57.440Z,28.92
2019-02-07T00:40:35.562Z,29.45
2019-02-07T00:41:31.839Z,28.47
2019-02-07T00:42:09.627Z,28.45
2019-02-07T00:42:47.691Z,28.70
2019-02-07T00:43:25.509Z,28.45
2019-02-07T00:44:03.290Z,30.35
2019-02-07T00:44:50.402Z,28.83
2019-02-07T00:45:20.825Z,29.40
2019-02-07T00:45:58.639Z,29.25
2019-02-07T00:46:36.823Z,26.80
2019-02-07T00:47:14.648Z,29.52
2019-02-07T00:48:10.876Z,27.40
2019-02-07T00:48:48.798Z,29.37
2019-02-07T00:49:26.372Z,28.90
2019-02-07T00:50:05.040Z,28.70
2019-02-07T00:50:43.172Z,28.95
2019-02-07T00:51:21.124Z,28.50
2019-02-07T00:51:58.528Z,30.45
2019-02-07T00:52:36.401Z,29.20
2019-02-07T00:53:14.455Z,29.00
2019-02-07T00:53:51.189Z,30.27
2019-02-07T00:54:29.133Z,29.55
2019-02-07T00:55:07.808Z,30.77
2019-02-07T00:55:45.648Z,31.17
2019-02-07T00:56:23.352Z,30.45
2019-02-07T00:57:01.497Z,30.40
2019-02-07T00:57:38.939Z,30.55
2019-02-07T00:58:16.697Z,31.45
2019-02-07T00:58:53.769Z,28.38
2019-02-07T00:59:31.149Z,28.87
2019-02-07T01:00:20.804Z,30.55
2019-02-07T01:00:58.397Z,31.68
2019-02-07T01:01:36.182Z,29.80
2019-02-07T01:02:14.064Z,29.87
2019-02-07T01:02:51.744Z,30.55
2019-02-07T01:03:29.354Z,30.62
2019-02-07T01:04:07.576Z,29.87
2019-02-07T01:04:45.355Z,30.50
2019-02-07T01:05:23.297Z,29.75
2019-02-07T01:06:01.296Z,29.85
2019-02-07T01:06:39.192Z,30.32
2019-02-07T01:07:17.263Z,30.10
2019-02-07T01:07:54.852Z,29.65
2019-02-07T01:08:32.649Z,30.77
2019-02-07T01:09:11.006Z,31.02
2019-02-07T01:09:49.773Z,30.65
2019-02-07T01:10:27.751Z,32.30
2019-02-07T01:11:05.221Z,30.20
2019-02-07T01:11:42.733Z,31.57
2019-02-07T01:12:20.572Z,30.10
2019-02-07T01:12:58.823Z,30.57
2019-02-07T01:13:36.656Z,31.45
2019-02-07T01:14:14.470Z,32.25
2019-02-07T01:15:01.622Z,31.23
2019-02-07T01:15:32.216Z,30.37
2019-02-07T01:16:09.761Z,33.15
2019-02-07T01:16:47.449Z,29.98
2019-02-07T01:17:25.231Z,29.60
2019-02-07T01:18:02.730Z,30.40
2019-02-07T01:18:40.182Z,30.70
2019-02-07T01:19:17.318Z,30.85
2019-02-07T01:19:55.257Z,30.77
2019-02-07T01:20:33.164Z,31.17
2019-02-07T01:21:11.131Z,30.70
2019-02-07T01:21:48.497Z,30.35
2019-02-07T01:22:26.176Z,32.30
2019-02-07T01:23:04.398Z,31.87
2019-02-07T01:23:42.161Z,30.52
2019-02-07T01:24:20.179Z,31.48
2019-02-07T01:24:57.944Z,31.30
2019-02-07T01:25:35.783Z,31.25
2019-02-07T01:26:13.715Z,32.03
2019-02-07T01:26:51.436Z,30.20
2019-02-07T01:27:29.188Z,33.02
2019-02-07T01:28:07.117Z,31.07
2019-02-07T01:28:44.867Z,30.35
2019-02-07T01:29:22.873Z,30.80
2019-02-07T01:30:00.887Z,30.57
2019-02-07T01:30:38.053Z,30.85
2019-02-07T01:31:15.972Z,29.50
2019-02-07T01:31:53.611Z,30.43
2019-02-07T01:32:30.694Z,31.93
2019-02-07T01:33:08.683Z,30.65
2019-02-07T01:33:46.854Z,29.52
2019-02-07T01:34:24.367Z,31.37
2019-02-07T01:35:01.764Z,30.20
2019-02-07T01:35:39.623Z,31.10
2019-02-07T01:36:17.421Z,28.98
2019-02-07T01:36:55.383Z,29.82
2019-02-07T01:37:33.187Z,30.35
2019-02-07T01:38:11.263Z,32.45
2019-02-07T01:38:48.656Z,30.80
2019-02-07T01:39:26.641Z,30.70
2019-02-07T01:40:05.515Z,31.60
2019-02-07T01:40:43.725Z,29.70
2019-02-07T01:41:21.467Z,29.72
2019-02-07T01:41:59.391Z,32.88
2019-02-07T01:42:37.515Z,30.37
2019-02-07T01:43:15.187Z,29.48
2019-02-07T01:43:52.331Z,33.25
2019-02-07T01:44:30.400Z,31.17
2019-02-07T01:45:13.156Z,29.90
2019-02-07T01:45:49.378Z,30.82
2019-02-07T01:46:27.102Z,31.60
2019-02-07T01:47:04.771Z,30.62
2019-02-07T01:47:41.851Z,31.80
2019-02-07T01:48:19.602Z,31.65
2019-02-07T01:48:57.577Z,29.98
2019-02-07T01:49:34.635Z,32.65
2019-02-07T01:50:14.057Z,29.20
2019-02-07T01:50:52.215Z,32.33
2019-02-07T01:51:29.003Z,31.20
2019-02-07T01:52:07.245Z,31.12
2019-02-07T01:52:44.945Z,30.85
2019-02-07T01:53:22.729Z,30.85
2019-02-07T01:54:00.392Z,31.70
2019-02-07T01:54:38.117Z,30.70
2019-02-07T01:55:15.958Z,30.80
2019-02-07T01:55:53.349Z,30.97
2019-02-07T01:56:31.456Z,31.75
2019-02-07T01:57:09.219Z,31.62
2019-02-07T01:57:47.160Z,31.75
2019-02-07T01:58:24.890Z,31.10
2019-02-07T01:59:02.698Z,31.10
2019-02-07T01:59:40.285Z,31.07
2019-02-07T02:00:20.300Z,31.57
2019-02-07T02:00:57.989Z,31.55
2019-02-07T02:01:35.496Z,32.53
2019-02-07T02:02:12.529Z,32.42
2019-02-07T02:02:50.129Z,31.68
2019-02-07T02:03:27.598Z,31.20
2019-02-07T02:04:05.263Z,32.25
2019-02-07T02:04:51.871Z,32.58
2019-02-07T02:05:29.771Z,31.82
2019-02-07T02:06:08.069Z,32.90
2019-02-07T02:06:45.571Z,31.42
2019-02-07T02:07:23.112Z,33.10
2019-02-07T02:08:00.596Z,32.28
2019-02-07T02:08:38.173Z,31.90
2019-02-07T02:09:15.607Z,33.80
2019-02-07T02:09:53.168Z,30.92
2019-02-07T02:10:31.383Z,33.42
2019-02-07T02:11:08.651Z,32.70
2019-02-07T02:11:46.098Z,31.33
2019-02-07T02:12:24.115Z,30.65
2019-02-07T02:13:02.042Z,31.33
2019-02-07T02:13:40.167Z,31.80
2019-02-07T02:14:18.046Z,31.12
2019-02-07T02:14:55.599Z,30.55
2019-02-07T02:15:33.442Z,31.87
2019-02-07T02:16:11.200Z,32.17
2019-02-07T02:16:49.227Z,29.98
2019-02-07T02:17:26.987Z,31.07
2019-02-07T02:18:05.004Z,30.97
2019-02-07T02:18:42.685Z,32.55
2019-02-07T02:19:19.817Z,30.12
2019-02-07T02:19:57.705Z,31.17
2019-02-07T02:20:35.829Z,32.33
2019-02-07T02:21:13.495Z,33.85
2019-02-07T02:21:50.971Z,31.85
2019-02-07T02:22:28.390Z,32.85
2019-02-07T02:23:06.871Z,32.93
2019-02-07T02:23:48.346Z,31.90
2019-02-07T02:24:26.092Z,31.85
2019-02-07T02:25:04.310Z,31.90
2019-02-07T02:25:41.915Z,33.25
2019-02-07T02:26:19.918Z,31.25
2019-02-07T02:26:57.934Z,32.08
2019-02-07T02:27:35.765Z,29.90
2019-02-07T02:28:15.062Z,31.33
2019-02-07T02:28:52.811Z,30.62
2019-02-07T02:29:30.957Z,31.68
2019-02-07T02:30:13.950Z,32.25
2019-02-07T02:30:51.839Z,31.70
2019-02-07T02:31:29.846Z,31.85
2019-02-07T02:32:07.340Z,32.67
2019-02-07T02:32:45.495Z,31.45
2019-02-07T02:33:23.026Z,33.28
2019-02-07T02:34:05.254Z,32.70
2019-02-07T02:34:43.063Z,32.48
2019-02-07T02:35:20.643Z,32.33
2019-02-07T02:35:58.634Z,30.70
2019-02-07T02:36:37.187Z,32.00
2019-02-07T02:37:14.933Z,32.38
2019-02-07T02:37:52.075Z,31.75
2019-02-07T02:38:29.998Z,34.35
2019-02-07T02:39:09.439Z,32.20
2019-02-07T02:39:48.154Z,31.82
2019-02-07T02:40:27.226Z,31.37
2019-02-07T02:41:05.222Z,31.50
2019-02-07T02:41:43.231Z,33.33
2019-02-07T02:42:20.955Z,31.30
2019-02-07T02:42:59.383Z,33.02
2019-02-07T02:43:39.499Z,33.10
2019-02-07T02:44:19.062Z,32.08
2019-02-07T02:44:57.886Z,31.90
2019-02-07T02:45:37.721Z,33.33
2019-02-07T02:46:15.357Z,31.15
2019-02-07T02:46:52.482Z,31.40
2019-02-07T02:47:30.465Z,31.20
2019-02-07T02:48:08.283Z,29.57
2019-02-07T02:48:46.215Z,33.08
2019-02-07T02:49:24.215Z,33.63
2019-02-07T02:50:01.844Z,32.67
2019-02-07T02:50:39.197Z,32.65
2019-02-07T02:51:17.214Z,32.33
2019-02-07T02:51:54.966Z,33.10
2019-02-07T02:52:32.704Z,32.78
2019-02-07T02:53:10.541Z,31.20
2019-02-07T02:53:48.531Z,31.12
2019-02-07T02:54:35.359Z,32.53
2019-02-07T02:55:15.931Z,32.00
2019-02-07T02:55:54.889Z,30.85
2019-02-07T02:56:33.292Z,31.42
2019-02-07T02:57:11.177Z,31.50
2019-02-07T02:58:07.462Z,31.60
2019-02-07T02:58:44.886Z,30.55
2019-02-07T02:59:22.703Z,30.05
2019-02-07T03:00:00.399Z,31.97
2019-02-07T03:00:56.766Z,31.50
2019-02-07T03:01:46.942Z,32.33
2019-02-07T03:02:37.584Z,30.40
2019-02-07T03:03:32.227Z,31.23
2019-02-07T03:04:27.304Z,31.00
2019-02-07T03:05:23.213Z,30.35
2019-02-07T03:06:08.885Z,29.55
2019-02-07T03:07:04.795Z,31.93
2019-02-07T03:08:01.728Z,31.80
2019-02-07T03:09:16.889Z,29.70
2019-02-07T03:10:12.289Z,31.15
2019-02-07T03:11:02.558Z,27.55
2019-02-07T03:11:58.591Z,31.97
2019-02-07T03:12:55.504Z,30.65
2019-02-07T03:14:00.693Z,30.40
2019-02-07T03:14:49.487Z,31.90
2019-02-07T03:15:51.649Z,30.70
2019-02-07T03:16:50.834Z,31.00
2019-02-07T03:18:05.685Z,31.52
2019-02-07T03:19:02.620Z,28.07
2019-02-07T03:19:58.097Z,28.87
2019-02-07T03:21:09.901Z,31.82
2019-02-07T03:22:00.493Z,28.52
2019-02-07T03:23:00.194Z,28.73
2019-02-07T03:23:55.694Z,28.75
2019-02-07T03:26:15.263Z,29.52
2019-02-07T03:27:23.720Z,30.50
2019-02-07T03:28:17.619Z,30.50
2019-02-07T03:29:14.156Z,30.25
2019-02-07T03:30:19.894Z,30.30
2019-02-07T03:31:18.272Z,28.65
2019-02-07T03:32:04.150Z,29.48
2019-02-07T03:32:52.915Z,30.43
2019-02-07T03:33:39.886Z,32.45
2019-02-07T03:34:39.894Z,31.30
2019-02-07T03:35:25.667Z,30.35
2019-02-07T03:36:24.660Z,32.50
2019-02-07T03:37:27.318Z,30.60
2019-02-07T03:38:15.023Z,31.35
2019-02-07T03:39:07.656Z,29.77
2019-02-07T03:40:13.103Z,32.25
2019-02-07T03:41:00.207Z,30.95
2019-02-07T03:42:00.725Z,29.32
2019-02-07T03:43:03.497Z,29.27
2019-02-07T03:43:59.223Z,31.65
2019-02-07T03:45:06.789Z,28.35
2019-02-07T03:46:05.493Z,30.30
2019-02-07T03:47:08.939Z,29.70
2019-02-07T03:48:03.644Z,30.60
2019-02-07T03:48:58.757Z,31.23
2019-02-07T03:50:03.673Z,30.90
2019-02-07T03:50:59.105Z,28.65
2019-02-07T03:51:54.231Z,31.85
2019-02-07T03:52:39.424Z,30.88
2019-02-07T03:53:37.954Z,32.83
2019-02-07T03:54:49.355Z,31.02
2019-02-07T03:55:39.308Z,31.45
2019-02-07T03:56:41.495Z,30.05
2019-02-07T03:57:53.493Z,29.70
2019-02-07T03:58:54.919Z,27.10
2019-02-07T03:59:57.793Z,29.95
2019-02-07T04:00:46.219Z,29.48
2019-02-07T04:01:58.061Z,30.57
2019-02-07T04:02:53.405Z,28.55
2019-02-07T04:03:46.957Z,30.68
2019-02-07T04:05:02.679Z,26.62
2019-02-07T04:06:12.723Z,27.58
2019-02-07T04:07:24.254Z,28.67
2019-02-07T04:08:18.321Z,27.70
2019-02-07T04:09:13.717Z,27.30
2019-02-07T04:10:10.251Z,28.55
2019-02-07T04:11:02.681Z,27.70
2019-02-07T04:11:58.085Z,27.20
2019-02-07T04:13:07.711Z,28.07
2019-02-07T04:14:02.180Z,28.02
2019-02-07T04:14:49.907Z,27.20
2019-02-07T04:15:43.627Z,26.52
2019-02-07T04:16:49.103Z,27.42
2019-02-07T04:17:43.769Z,25.50
2019-02-07T04:18:45.894Z,25.55
2019-02-07T04:19:48.286Z,27.22
2019-02-07T04:21:02.060Z,26.17
2019-02-07T04:22:04.282Z,26.00
2019-02-07T04:22:53.331Z,27.55
2019-02-07T04:23:43.516Z,28.50
2019-02-07T04:24:55.392Z,27.55
2019-02-07T04:25:50.296Z,26.42
2019-02-07T04:26:46.946Z,28.15
2019-02-07T04:27:34.631Z,25.70
2019-02-07T04:28:24.393Z,26.40
2019-02-07T04:29:27.074Z,25.72
2019-02-07T04:30:24.815Z,27.80
2019-02-07T04:31:20.215Z,28.60
2019-02-07T04:32:11.858Z,25.82
2019-02-07T04:33:27.098Z,26.12
2019-02-07T04:34:17.547Z,26.73
2019-02-07T04:35:28.541Z,28.10
2019-02-07T04:36:34.083Z,27.40
2019-02-07T04:37:35.920Z,28.40
2019-02-07T04:38:28.969Z,25.12
2019-02-07T04:39:28.263Z,26.87
2019-02-07T04:40:28.467Z,27.17
2019-02-07T04:41:43.230Z,26.75
2019-02-07T04:42:58.659Z,25.43
2019-02-07T04:43:49.279Z,25.15
2019-02-07T04:44:42.726Z,25.60
2019-02-07T04:45:37.818Z,25.70
2019-02-07T04:46:49.816Z,26.85
2019-02-07T04:48:04.570Z,23.62
2019-02-07T04:48:58.013Z,26.23
2019-02-07T04:50:00.415Z,24.75
2019-02-07T04:51:00.289Z,25.80
2019-02-07T04:51:55.780Z,25.37
2019-02-07T04:52:55.226Z,24.82
2019-02-07T04:53:58.146Z,25.12
2019-02-07T04:54:42.695Z,24.77
2019-02-07T04:55:38.088Z,24.75
2019-02-07T04:56:40.656Z,25.30
2019-02-07T04:57:44.350Z,26.60
2019-02-07T04:58:41.387Z,25.60
2019-02-07T04:59:37.912Z,24.75
2019-02-07T05:00:25.232Z,24.23
2019-02-07T05:01:30.976Z,24.25
2019-02-07T05:02:26.579Z,24.70
2019-02-07T05:03:21.760Z,23.50
2019-02-07T05:04:30.528Z,25.10
2019-02-07T05:05:40.616Z,23.02
2019-02-07T05:06:35.727Z,25.12
2019-02-07T05:07:39.517Z,26.27
2019-02-07T05:08:41.776Z,24.23
2019-02-07T05:09:50.790Z,24.95
2019-02-07T05:11:05.317Z,24.30
2019-02-07T05:12:05.348Z,24.37
2019-02-07T05:13:07.759Z,24.80
2019-02-07T05:13:55.734Z,24.98
2019-02-07T05:14:51.336Z,23.38
2019-02-07T05:15:46.732Z,25.27
2019-02-07T05:16:43.835Z,26.10
2019-02-07T05:17:38.352Z,25.08
2019-02-07T05:18:47.372Z,24.40
2019-02-07T05:19:59.360Z,23.00
2019-02-07T05:21:00.596Z,24.25
2019-02-07T05:21:58.244Z,22.90
2019-02-07T05:22:48.936Z,23.92
2019-02-07T05:23:54.276Z,24.75
2019-02-07T05:24:49.826Z,23.77
2019-02-07T05:25:45.579Z,23.50
2019-02-07T05:26:34.118Z,24.37
2019-02-07T05:27:18.761Z,22.65
2019-02-07T05:28:11.598Z,22.25
2019-02-07T05:29:10.789Z,24.20
2019-02-07T05:30:13.153Z,26.12
2019-02-07T05:31:10.084Z,23.73
2019-02-07T05:32:00.461Z,24.12
2019-02-07T05:32:52.075Z,24.90
2019-02-07T05:34:01.200Z,24.37
2019-02-07T05:34:50.444Z,22.67
2019-02-07T05:36:01.826Z,24.32
2019-02-07T05:36:57.216Z,23.05
2019-02-07T05:37:56.306Z,23.70
2019-02-07T05:38:55.707Z,24.70
2019-02-07T05:39:51.712Z,23.52
2019-02-07T05:40:46.604Z,24.20
2019-02-07T05:41:42.915Z,22.90
2019-02-07T05:43:08.321Z,22.90
2019-02-07T05:44:07.826Z,22.40
2019-02-07T05:45:09.569Z,22.52
2019-02-07T05:46:03.840Z,22.20
2019-02-07T05:47:12.852Z,21.85
2019-02-07T05:48:13.580Z,23.18
2019-02-07T05:49:04.237Z,21.80
2019-02-07T05:50:14.308Z,20.82
2019-02-07T05:51:08.743Z,20.30
2019-02-07T05:52:08.380Z,23.38
2019-02-07T05:52:59.328Z,21.85
2019-02-07T05:53:55.905Z,21.70
2019-02-07T05:54:56.108Z,22.70
2019-02-07T05:56:08.107Z,23.15
2019-02-07T05:57:05.043Z,23.27
2019-02-07T05:58:00.024Z,23.10
2019-02-07T05:58:59.483Z,22.22
2019-02-07T05:59:54.001Z,24.05
2019-02-07T06:00:49.910Z,21.33
2019-02-07T06:01:40.390Z,22.85
2019-02-07T06:02:27.286Z,23.62
2019-02-07T06:03:24.313Z,21.23
2019-02-07T06:04:11.433Z,21.57
2019-02-07T06:05:14.060Z,21.57
2019-02-07T06:06:06.224Z,20.60
2019-02-07T06:07:07.772Z,21.73
2019-02-07T06:08:22.320Z,21.37
2019-02-07T06:09:31.032Z,20.57
2019-02-07T06:10:47.734Z,20.55
2019-02-07T06:12:00.108Z,19.95
2019-02-07T06:12:56.232Z,19.90
2019-02-07T06:13:51.432Z,21.40
2019-02-07T06:14:46.312Z,21.20
2019-02-07T06:15:57.033Z,22.52
2019-02-07T06:17:02.208Z,19.20
2019-02-07T06:17:51.160Z,20.30
2019-02-07T06:18:43.376Z,18.48
2019-02-07T06:19:29.155Z,20.10
2019-02-07T06:20:15.841Z,20.80
2019-02-07T06:21:02.034Z,19.20
2019-02-07T06:22:09.311Z,19.57
2019-02-07T06:23:04.394Z,18.30
2019-02-07T06:23:57.128Z,17.62
2019-02-07T06:24:46.488Z,19.25
2019-02-07T06:25:52.741Z,19.85
2019-02-07T06:26:39.451Z,17.92
2019-02-07T06:27:34.607Z,18.92
2019-02-07T06:28:34.428Z,19.05
2019-02-07T06:29:39.964Z,18.60
2019-02-07T06:30:46.672Z,18.02
2019-02-07T06:31:54.881Z,18.15
2019-02-07T06:32:50.950Z,17.87
2019-02-07T06:33:43.169Z,18.17
2019-02-07T06:34:33.446Z,16.87
2019-02-07T06:35:27.616Z,18.57
2019-02-07T06:36:29.982Z,17.25
2019-02-07T06:37:32.276Z,17.32
2019-02-07T06:38:26.408Z,17.05
2019-02-07T06:39:28.463Z,17.80
2019-02-07T06:40:40.047Z,18.12
2019-02-07T06:41:35.756Z,17.73
2019-02-07T06:42:35.253Z,18.98
2019-02-07T06:43:43.853Z,16.48
2019-02-07T06:44:39.271Z,18.02
2019-02-07T06:45:34.087Z,17.77
2019-02-07T06:46:59.168Z,18.75
2019-02-07T06:48:01.596Z,18.25
2019-02-07T06:48:59.238Z,18.67
2019-02-07T06:49:54.846Z,19.50
2019-02-07T06:50:43.781Z,18.20
2019-02-07T06:51:38.474Z,19.57
2019-02-07T06:52:33.881Z,18.02
2019-02-07T06:53:36.956Z,18.95
2019-02-07T06:54:27.541Z,17.20
2019-02-07T06:55:23.481Z,18.15
2019-02-07T06:56:14.145Z,17.70
2019-02-07T06:57:08.678Z,17.75
2019-02-07T06:58:13.853Z,17.82
2019-02-07T06:59:09.051Z,18.32
2019-02-07T06:59:56.357Z,17.17
2019-02-07T07:00:46.021Z,17.40
2019-02-07T07:01:41.514Z,16.20
2019-02-07T07:02:30.975Z,17.15
2019-02-07T07:03:26.377Z,16.90
2019-02-07T07:04:12.373Z,17.12
2019-02-07T07:05:00.799Z,17.42
2019-02-07T07:06:00.590Z,15.90
2019-02-07T07:06:56.710Z,16.55
2019-02-07T07:07:52.409Z,17.87
2019-02-07T07:08:47.464Z,16.23
2019-02-07T07:09:42.269Z,16.12
2019-02-07T07:10:38.313Z,14.93
2019-02-07T07:11:26.990Z,16.10
2019-02-07T07:12:13.229Z,15.58
2019-02-07T07:13:01.887Z,15.18
2019-02-07T07:13:58.408Z,16.10
2019-02-07T07:14:52.669Z,14.98
2019-02-07T07:15:53.097Z,16.00
2019-02-07T07:16:55.222Z,15.65
2019-02-07T07:17:56.372Z,15.10
2019-02-07T07:19:07.949Z,15.30
2019-02-07T07:20:15.468Z,15.23
2019-02-07T07:21:14.718Z,14.23
2019-02-07T07:22:09.615Z,15.10
2019-02-07T07:23:05.015Z,14.10
2019-02-07T07:24:01.541Z,15.20
2019-02-07T07:24:57.348Z,14.98
2019-02-07T07:25:52.950Z,15.03
2019-02-07T07:26:48.458Z,16.20
2019-02-07T07:27:53.992Z,14.07
2019-02-07T07:28:57.169Z,14.70
2019-02-07T07:30:02.751Z,13.55
2019-02-07T07:30:58.215Z,13.90
2019-02-07T07:31:54.117Z,15.18
2019-02-07T07:32:59.870Z,14.60
2019-02-07T07:34:05.507Z,15.18
2019-02-07T07:35:00.324Z,15.32
2019-02-07T07:36:03.056Z,14.33
2019-02-07T07:37:01.507Z,16.00
2019-02-07T07:38:01.636Z,13.53
2019-02-07T07:38:51.415Z,14.85
2019-02-07T07:39:36.882Z,15.13
2019-02-07T07:40:32.283Z,17.37
2019-02-07T07:41:24.293Z,15.15
2019-02-07T07:42:23.798Z,14.63
2019-02-07T07:43:14.283Z,17.55
2019-02-07T07:44:18.699Z,16.52
2019-02-07T07:45:14.593Z,13.65
2019-02-07T07:46:10.299Z,14.70
2019-02-07T07:47:35.523Z,15.40
2019-02-07T07:48:30.058Z,13.45
2019-02-07T07:49:48.725Z,13.90
2019-02-07T07:50:57.737Z,13.62
2019-02-07T07:52:00.299Z,13.65
2019-02-07T07:52:53.373Z,13.85
2019-02-07T07:53:58.073Z,13.53
2019-02-07T07:54:42.918Z,14.45
2019-02-07T07:55:31.051Z,13.90
2019-02-07T07:56:45.953Z,14.23
2019-02-07T07:57:42.147Z,12.70
2019-02-07T07:58:48.171Z,13.48
2019-02-07T07:59:43.336Z,14.15
2019-02-07T08:00:55.153Z,14.35
2019-02-07T08:01:55.152Z,13.15
2019-02-07T08:02:50.343Z,14.35
2019-02-07T08:03:42.161Z,13.13
2019-02-07T08:04:38.379Z,13.95
2019-02-07T08:05:34.636Z,13.38
2019-02-07T08:06:29.559Z,13.65
2019-02-07T08:07:20.374Z,14.45
2019-02-07T08:08:14.968Z,13.53
2019-02-07T08:09:01.241Z,14.55
2019-02-07T08:09:47.223Z,13.80
2019-02-07T08:10:39.007Z,14.58
2019-02-07T08:11:24.197Z,14.07
2019-02-07T08:12:31.779Z,13.50
2019-02-07T08:13:33.731Z,13.75
2019-02-07T08:14:30.767Z,13.28
2019-02-07T08:15:34.447Z,14.23
2019-02-07T08:16:32.932Z,13.58
2019-02-07T08:17:47.470Z,14.30
2019-02-07T08:18:36.841Z,12.73
2019-02-07T08:19:30.833Z,13.43
2019-02-07T08:20:20.956Z,15.80
2019-02-07T08:21:12.896Z,13.50
2019-02-07T08:22:17.825Z,13.15
2019-02-07T08:23:00.779Z,12.95
2019-02-07T08:24:03.909Z,14.20
2019-02-07T08:24:53.057Z,14.83
2019-02-07T08:25:48.244Z,12.40
2019-02-07T08:26:43.448Z,13.32
2019-02-07T08:27:55.435Z,13.05
2019-02-07T08:29:03.739Z,12.58
2019-02-07T08:29:58.844Z,13.30
2019-02-07T08:31:03.023Z,13.08
2019-02-07T08:32:03.250Z,13.38
2019-02-07T08:32:58.945Z,13.95
2019-02-07T08:33:49.000Z,13.53
2019-02-07T08:34:43.905Z,13.15
2019-02-07T08:35:39.405Z,13.83
2019-02-07T08:36:51.014Z,13.18
2019-02-07T08:37:50.255Z,12.53
2019-02-07T08:38:49.845Z,12.25
2019-02-07T08:39:51.186Z,12.85
2019-02-07T08:40:45.995Z,12.75
2019-02-07T08:41:57.470Z,12.45
2019-02-07T08:43:12.139Z,12.50
2019-02-07T08:44:13.345Z,12.05
2019-02-07T08:45:13.154Z,11.45
2019-02-07T08:46:08.565Z,13.08
2019-02-07T08:47:04.275Z,15.13
2019-02-07T08:48:16.046Z,22.80
2019-02-07T08:49:21.889Z,12.90
2019-02-07T08:50:24.509Z,12.78
2019-02-07T08:51:21.707Z,12.25
2019-02-07T08:52:16.901Z,12.45
2019-02-07T08:53:12.285Z,13.50
2019-02-07T08:54:20.389Z,13.28
2019-02-07T08:55:08.620Z,11.18
2019-02-07T08:56:03.790Z,12.37
2019-02-07T08:56:58.523Z,12.93
2019-02-07T08:58:09.353Z,12.40
2019-02-07T08:59:04.294Z,11.33
2019-02-07T09:00:00.867Z,11.08
2019-02-07T09:00:44.286Z,12.13
2019-02-07T09:01:40.504Z,12.73
2019-02-07T09:02:51.835Z,11.43
2019-02-07T09:03:34.881Z,10.70
2019-02-07T09:04:34.590Z,12.05
2019-02-07T09:05:37.057Z,11.22
2019-02-07T09:06:22.211Z,11.88
2019-02-07T09:07:24.060Z,11.57
2019-02-07T09:08:15.485Z,11.63
2019-02-07T09:09:08.714Z,11.20
2019-02-07T09:09:58.764Z,11.50
2019-02-07T09:10:46.520Z,12.05
2019-02-07T09:11:41.500Z,11.68
2019-02-07T09:12:56.387Z,11.03
2019-02-07T09:13:53.737Z,11.05
2019-02-07T09:14:57.283Z,11.05
2019-02-07T09:15:47.051Z,11.30
2019-02-07T09:16:43.059Z,11.20
2019-02-07T09:17:39.592Z,10.40
2019-02-07T09:18:36.536Z,11.00
2019-02-07T09:19:33.358Z,11.80
2019-02-07T09:20:21.075Z,11.18
2019-02-07T09:21:29.796Z,10.72
2019-02-07T09:22:23.920Z,11.05
2019-02-07T09:23:07.985Z,11.70
2019-02-07T09:24:03.511Z,10.98
2019-02-07T09:25:07.899Z,10.25
2019-02-07T09:26:06.989Z,10.90
2019-02-07T09:27:02.817Z,10.15
2019-02-07T09:28:10.177Z,10.80
2019-02-07T09:29:01.887Z,10.00
2019-02-07T09:29:56.896Z,10.85
2019-02-07T09:30:50.916Z,10.30
2019-02-07T09:31:46.416Z,10.30
2019-02-07T09:32:54.491Z,10.88
2019-02-07T09:34:00.181Z,10.40
2019-02-07T09:34:56.260Z,10.30
2019-02-07T09:36:04.618Z,10.63
2019-02-07T09:36:43.717Z,11.95
2019-02-07T09:37:53.463Z,11.30
2019-02-07T09:38:49.051Z,10.38
2019-02-07T09:39:57.423Z,10.20
2019-02-07T09:40:55.406Z,10.75
2019-02-07T09:41:55.214Z,9.23
2019-02-07T09:43:06.391Z,10.32
2019-02-07T09:43:55.023Z,9.60
2019-02-07T09:44:57.279Z,8.68
2019-02-07T09:45:52.696Z,9.88
2019-02-07T09:46:55.555Z,9.90
2019-02-07T09:47:50.545Z,9.75
2019-02-07T09:48:54.070Z,10.53
2019-02-07T09:49:49.509Z,10.45
2019-02-07T09:50:44.865Z,9.60
2019-02-07T09:51:30.641Z,9.68
2019-02-07T09:52:45.780Z,9.83
2019-02-07T09:53:44.972Z,9.70
2019-02-07T09:54:50.596Z,9.20
2019-02-07T09:55:36.071Z,9.60
2019-02-07T09:56:31.157Z,8.63
2019-02-07T09:57:17.447Z,8.78
2019-02-07T09:58:22.783Z,10.00
2019-02-07T09:59:21.974Z,9.75
2019-02-07T10:00:19.724Z,10.65
2019-02-07T10:01:14.270Z,9.55
2019-02-07T10:02:26.586Z,9.48
2019-02-07T10:03:13.642Z,10.03
2019-02-07T10:03:59.677Z,10.13
2019-02-07T10:04:44.880Z,9.55
2019-02-07T10:05:36.093Z,9.30
2019-02-07T10:06:24.571Z,9.53
2019-02-07T10:07:29.800Z,10.30
2019-02-07T10:08:27.045Z,9.38
2019-02-07T10:09:43.028Z,8.33
2019-02-07T10:10:40.014Z,8.95
2019-02-07T10:11:30.513Z,9.18
2019-02-07T10:12:25.962Z,9.63
2019-02-07T10:13:22.456Z,9.33
2019-02-07T10:14:09.581Z,9.70
2019-02-07T10:15:04.361Z,9.35
2019-02-07T10:15:51.619Z,9.68
2019-02-07T10:17:02.741Z,8.58
2019-02-07T10:17:58.812Z,9.30
2019-02-07T10:18:58.277Z,8.33
2019-02-07T10:19:53.107Z,8.00
2019-02-07T10:20:48.342Z,9.68
2019-02-07T10:21:54.074Z,9.73
2019-02-07T10:22:46.604Z,8.33
2019-02-07T10:24:01.452Z,8.83
2019-02-07T10:25:07.299Z,8.15
2019-02-07T10:26:17.953Z,8.28
2019-02-07T10:27:13.974Z,7.60
2019-02-07T10:28:13.969Z,8.55
2019-02-07T10:29:06.404Z,9.00
2019-02-07T10:30:11.561Z,8.28
2019-02-07T10:30:59.748Z,8.58
2019-02-07T10:31:51.198Z,7.80
2019-02-07T10:32:38.741Z,8.48
2019-02-07T10:33:34.315Z,8.13
2019-02-07T10:34:29.578Z,7.80
2019-02-07T10:35:41.852Z,8.10
2019-02-07T10:36:53.128Z,8.15
2019-02-07T10:37:49.062Z,8.10
2019-02-07T10:38:46.499Z,7.87
2019-02-07T10:39:41.904Z,8.28
2019-02-07T10:40:32.600Z,8.60
2019-02-07T10:41:41.008Z,7.95
2019-02-07T10:42:45.593Z,7.90
2019-02-07T10:43:40.884Z,8.20
2019-02-07T10:44:29.144Z,7.28
2019-02-07T10:45:26.596Z,7.85
2019-02-07T10:46:23.525Z,7.20
2019-02-07T10:47:26.500Z,7.37
2019-02-07T10:48:24.459Z,7.20
2019-02-07T10:49:26.715Z,7.42
2019-02-07T10:50:11.860Z,6.67
2019-02-07T10:51:07.675Z,6.87
2019-02-07T10:52:04.612Z,7.60
2019-02-07T10:52:53.972Z,6.70
2019-02-07T10:53:48.963Z,7.03
2019-02-07T10:54:48.660Z,7.35
2019-02-07T10:55:37.844Z,7.65
2019-02-07T10:56:27.067Z,6.05
2019-02-07T10:57:19.398Z,7.53
2019-02-07T10:58:34.154Z,6.12
2019-02-07T10:59:23.786Z,6.30
2019-02-07T11:00:22.576Z,6.92